Terminal Aerodrome Forecast
Issued by NWS Rapid City, SD

Home | Current Version | Previous Version | Graphics & Text | Print | Product List | Glossary On
Versions: 1 2 3 4 5 6 7 8 9 10 11 12 13 14 15 16
000
FTUS43 KUNR 241100
TAFRAP
TAF
KRAP 241120Z 2412/2512 30011KT P6SM SCT250
     FM241800 35015G25KT P6SM SCT080 BKN250
     FM250100 32008KT P6SM SCT250=

USA.gov is the U.S. government's official web portal to all federal, state and local government web resources and services.